Time;durP1;ratioP1;P1;durP2;ratioP2;P2;SDS_P1;SDS_P2;PMS_P1;PMS_P2;Temp;Humidity;BMP_temperature;BMP_pressure;BME280_temperature;BME280_humidity;BME280_pressure;Samples;Min_cycle;Max_cycle;Signal;HPM_P1;HPM_P2
2022/01/05 00:02:08;;;;;;;9.25;5.08;;;;;;;9.10;67.84;97995.72;1674756;80;21088;-89
2022/01/05 00:04:35;;;;;;;8.90;4.53;;;;;;;9.07;67.69;97994.55;1719448;79;21111;-90
2022/01/05 00:07:05;;;;;;;13.30;4.67;;;;;;;9.06;67.97;98003.22;1699629;78;21076;-90
2022/01/05 00:09:31;;;;;;;9.28;5.53;;;;;;;9.05;68.34;98008.45;1692113;80;21109;-89
2022/01/05 00:11:58;;;;;;;8.65;4.35;;;;;;;9.02;68.59;97998.20;1691520;83;21061;-91
2022/01/05 00:14:24;;;;;;;9.85;5.08;;;;;;;9.00;68.81;98003.90;1691425;83;21208;-91
2022/01/05 00:16:50;;;;;;;9.58;5.33;;;;;;;9.00;69.05;98007.79;1691537;83;21193;-92
2022/01/05 00:19:18;;;;;;;11.78;5.17;;;;;;;8.99;69.16;98007.38;1691463;83;21061;-92
2022/01/05 00:21:44;;;;;;;17.60;8.05;;;;;;;8.99;69.01;97995.25;1702969;80;21071;-92
2022/01/05 00:24:11;;;;;;;16.87;8.18;;;;;;;8.97;68.95;98002.23;1643098;86;21102;-92
2022/01/05 00:26:37;;;;;;;14.45;7.78;;;;;;;8.91;68.93;97994.27;1669069;86;21521;-88
2022/01/05 00:29:04;;;;;;;15.10;8.53;;;;;;;8.88;68.94;98003.89;1679826;85;21047;-90
2022/01/05 00:31:30;;;;;;;17.77;9.20;;;;;;;8.83;68.84;97998.84;1692964;83;21069;-91
2022/01/05 00:33:56;;;;;;;14.15;8.55;;;;;;;8.79;68.79;97992.54;1693078;84;21032;-91
2022/01/05 00:36:23;;;;;;;12.85;8.43;;;;;;;8.73;68.69;98000.08;1693521;84;20989;-92
2022/01/05 00:38:49;;;;;;;16.30;8.60;;;;;;;8.69;68.86;97995.91;1710344;83;21024;-92
2022/01/05 00:41:16;;;;;;;14.55;8.63;;;;;;;8.64;68.94;97994.78;1692051;85;21499;-91
2022/01/05 00:43:42;;;;;;;13.85;7.62;;;;;;;8.56;69.32;97989.86;1679685;84;21040;-91
2022/01/05 00:46:09;;;;;;;20.23;8.08;;;;;;;8.52;69.32;97980.95;1699685;83;21024;-93
2022/01/05 00:48:35;;;;;;;14.68;8.55;;;;;;;8.46;69.93;97986.35;1691518;83;21426;-91
2022/01/05 00:51:10;;;;;;;13.50;7.72;;;;;;;8.40;69.86;97982.19;1712620;80;21092;-90
2022/01/05 00:53:37;;;;;;;14.20;8.25;;;;;;;8.34;69.86;97978.52;1708468;80;21179;-90
2022/01/05 00:56:06;;;;;;;14.18;7.85;;;;;;;8.29;70.02;97972.64;1691590;81;21063;-92
2022/01/05 00:58:33;;;;;;;12.45;6.90;;;;;;;8.23;70.17;97978.02;1689002;85;21028;-92
2022/01/05 01:01:01;;;;;;;14.60;8.75;;;;;;;8.16;70.08;97970.46;1722141;79;21094;-92
2022/01/05 01:03:28;;;;;;;11.08;6.20;;;;;;;8.13;70.86;97971.84;1733778;83;21071;-92
2022/01/05 01:05:58;;;;;;;8.98;4.40;;;;;;;8.10;71.33;97983.61;1736229;79;21085;-92
2022/01/05 01:08:25;;;;;;;8.38;4.47;;;;;;;8.14;70.84;97985.20;1750165;79;21572;-91
2022/01/05 01:10:52;;;;;;;11.40;4.72;;;;;;;8.35;70.95;97986.66;1682376;78;21078;-90
2022/01/05 01:13:20;;;;;;;10.93;4.90;;;;;;;8.50;70.79;97993.95;1662618;84;21036;-89
2022/01/05 01:15:48;;;;;;;10.80;5.60;;;;;;;8.63;70.91;98001.30;1715308;80;21473;-91
2022/01/05 01:18:16;;;;;;;13.48;5.95;;;;;;;8.71;70.92;98001.88;1708399;81;21088;-90
2022/01/05 01:20:51;;;;;;;10.78;6.28;;;;;;;8.76;71.12;98008.59;1712721;81;21130;-91
2022/01/05 01:23:19;;;;;;;15.88;6.53;;;;;;;8.82;71.15;98011.42;1698638;79;21104;-91
2022/01/05 01:25:45;;;;;;;15.25;6.58;;;;;;;8.80;71.08;98007.20;1705708;79;21086;-91
2022/01/05 01:28:11;;;;;;;11.45;5.78;;;;;;;8.74;71.14;98012.98;1705315;84;21011;-91
2022/01/05 01:30:38;;;;;;;13.78;6.28;;;;;;;8.72;71.42;98023.02;1705614;84;21070;-90
2022/01/05 01:33:05;;;;;;;13.35;6.92;;;;;;;8.69;71.38;98025.24;1718475;79;21056;-90
2022/01/05 01:35:31;;;;;;;12.60;6.25;;;;;;;8.70;71.14;98031.30;1728049;81;21030;-93
2022/01/05 01:37:58;;;;;;;12.90;6.12;;;;;;;8.67;71.49;98032.22;1735769;81;21000;-92
2022/01/05 01:40:25;;;;;;;13.80;6.30;;;;;;;8.66;71.78;98029.70;1728283;83;21019;-92
2022/01/05 01:42:51;;;;;;;12.18;5.87;;;;;;;8.66;71.59;98027.12;1722681;79;21128;-93
2022/01/05 01:45:18;;;;;;;11.63;5.15;;;;;;;8.66;71.46;98028.41;1723387;83;21029;-92
2022/01/05 01:47:46;;;;;;;12.37;5.05;;;;;;;8.64;71.44;98018.09;1711513;80;21128;-92
2022/01/05 01:50:14;;;;;;;11.18;4.92;;;;;;;8.65;71.64;98019.77;1676634;82;21078;-91
2022/01/05 01:52:41;;;;;;;9.53;4.95;;;;;;;8.68;71.62;98016.25;1721950;80;21092;-92
2022/01/05 01:55:10;;;;;;;9.95;5.30;;;;;;;8.71;71.72;98016.12;1733965;81;21503;-90
2022/01/05 01:57:43;;;;;;;14.73;5.67;;;;;;;8.74;71.98;98012.14;1764687;81;20988;-85
2022/01/05 02:00:12;;;;;;;13.58;5.50;;;;;;;8.78;72.07;98003.36;1752312;77;21214;-91
2022/01/05 02:02:39;;;;;;;11.78;5.78;;;;;;;8.82;72.22;98001.06;1738827;81;21055;-90
2022/01/05 02:05:07;;;;;;;14.30;6.47;;;;;;;8.87;72.08;98004.34;1741526;80;21126;-91
2022/01/05 02:07:34;;;;;;;10.30;5.58;;;;;;;8.91;72.12;97994.27;1649233;80;21113;-91
2022/01/05 02:10:04;;;;;;;8.98;4.53;;;;;;;8.92;71.89;97986.86;1708259;83;21097;-91
2022/01/05 02:12:31;;;;;;;10.82;5.78;;;;;;;8.93;71.45;97990.30;1819968;76;21083;-92
2022/01/05 02:14:57;;;;;;;14.00;7.70;;;;;;;8.93;71.37;97984.69;1863092;75;21022;-92
2022/01/05 02:17:41;;;;;;;13.35;6.58;;;;;;;8.91;71.24;97980.00;1886609;75;21013;-91
2022/01/05 02:19:52;;;;;;;14.10;6.37;;;;;;;8.85;71.23;97976.31;1790714;75;21086;-91
2022/01/05 02:22:18;;;;;;;14.60;7.53;;;;;;;8.80;71.15;97974.81;1734689;82;21499;-91
2022/01/05 02:24:47;;;;;;;16.48;8.48;;;;;;;8.74;71.11;97978.00;1730554;82;21791;-91
2022/01/05 02:27:14;;;;;;;15.60;8.18;;;;;;;8.66;71.12;97977.43;1780015;79;21066;-92
2022/01/05 02:29:41;;;;;;;18.62;7.70;;;;;;;8.60;71.13;97976.81;1676490;79;21119;-90
2022/01/05 02:32:08;;;;;;;16.30;7.03;;;;;;;8.52;71.12;97974.02;1671232;86;21006;-92
2022/01/05 02:34:34;;;;;;;14.58;6.00;;;;;;;8.46;71.17;97976.83;1670869;86;21574;-90
2022/01/05 02:37:01;;;;;;;13.85;6.95;;;;;;;8.39;71.23;97975.77;1668770;86;21513;-92
2022/01/05 02:39:27;;;;;;;12.05;6.83;;;;;;;8.32;71.36;97970.80;1668830;86;21075;-90
2022/01/05 02:41:55;;;;;;;14.20;5.72;;;;;;;8.25;71.44;97974.93;1707280;82;21075;-91
2022/01/05 02:44:22;;;;;;;9.48;4.97;;;;;;;8.19;71.51;97980.31;1725824;83;21035;-90
2022/01/05 02:46:48;;;;;;;8.63;4.70;;;;;;;8.13;71.47;97977.48;1716773;83;21004;-90
2022/01/05 02:49:15;;;;;;;9.98;5.50;;;;;;;8.07;71.45;97976.39;1725458;83;21037;-90
2022/01/05 02:51:41;;;;;;;11.83;4.78;;;;;;;8.02;71.85;97967.49;1718995;83;21028;-91
2022/01/05 02:54:07;;;;;;;12.68;5.50;;;;;;;8.00;71.78;97969.70;1725175;83;21041;-91
2022/01/05 02:56:34;;;;;;;9.70;5.50;;;;;;;7.95;72.08;97969.41;1716619;83;21028;-88
2022/01/05 02:59:03;;;;;;;9.90;4.92;;;;;;;7.92;71.72;97968.69;1706516;83;21003;-91
2022/01/05 03:01:31;;;;;;;12.63;5.47;;;;;;;7.87;71.88;97959.76;1731561;80;21089;-89
2022/01/05 03:03:57;;;;;;;12.28;4.97;;;;;;;7.84;71.89;97961.17;1741321;81;21017;-88
2022/01/05 03:06:24;;;;;;;9.95;4.62;;;;;;;7.83;71.91;97959.92;1719673;80;21103;-91
2022/01/05 03:08:51;;;;;;;13.53;5.28;;;;;;;7.82;72.13;97964.68;1665091;85;21047;-91
2022/01/05 03:11:17;;;;;;;11.78;5.80;;;;;;;7.81;72.35;97962.55;1733283;81;21133;-92
2022/01/05 03:13:43;;;;;;;13.45;6.28;;;;;;;7.79;72.48;97955.73;1734088;82;21021;-90
2022/01/05 03:16:12;;;;;;;12.73;6.17;;;;;;;7.76;72.81;97954.94;1721759;78;21101;-90
2022/01/05 03:18:38;;;;;;;12.58;6.40;;;;;;;7.76;73.04;97952.81;1714368;84;21020;-91
2022/01/05 03:21:06;;;;;;;12.82;6.58;;;;;;;7.73;73.16;97955.03;1757572;78;21043;-89
2022/01/05 03:23:33;;;;;;;13.22;6.50;;;;;;;7.72;73.44;97962.86;1763760;80;21006;-93
2022/01/05 03:25:59;;;;;;;22.70;7.62;;;;;;;7.68;73.52;97956.94;1763863;80;21499;-91
2022/01/05 03:28:25;;;;;;;16.52;6.60;;;;;;;7.66;73.69;97963.89;1730253;83;21009;-91
2022/01/05 03:30:52;;;;;;;15.95;7.42;;;;;;;7.64;73.97;97963.52;1730393;83;21054;-92
2022/01/05 03:33:21;;;;;;;17.23;7.83;;;;;;;7.63;74.29;97961.39;1699691;83;21013;-92
2022/01/05 03:35:48;;;;;;;12.90;7.50;;;;;;;7.60;74.12;97958.92;1737138;79;21107;-90
2022/01/05 03:38:17;;;;;;;20.40;7.62;;;;;;;7.53;74.14;97962.12;1737084;79;21648;-94
2022/01/05 03:40:46;;;;;;;18.07;7.37;;;;;;;7.48;74.26;97956.69;1743079;80;21089;-93
2022/01/05 03:43:13;;;;;;;15.23;7.53;;;;;;;7.39;73.97;97954.41;1754842;78;21132;-91
2022/01/05 03:45:40;;;;;;;17.17;7.33;;;;;;;7.30;74.83;97955.08;1724283;80;21103;-90
2022/01/05 03:48:11;;;;;;;15.13;7.00;;;;;;;7.27;74.41;97951.73;1716108;80;21056;-90
2022/01/05 03:50:38;;;;;;;15.50;7.00;;;;;;;7.19;74.90;97957.59;1676273;82;21039;-91
2022/01/05 03:53:06;;;;;;;21.93;7.95;;;;;;;7.11;75.07;97952.64;1735610;80;21071;-92
2022/01/05 03:55:36;;;;;;;14.85;7.72;;;;;;;7.06;75.42;97957.08;1721561;80;21091;-93
2022/01/05 03:58:03;;;;;;;17.62;7.78;;;;;;;6.99;75.76;97956.88;1745483;80;21043;-93
2022/01/05 04:00:34;;;;;;;18.60;8.15;;;;;;;6.91;76.10;97953.22;1758077;77;21155;-93
2022/01/05 04:03:03;;;;;;;17.40;7.67;;;;;;;6.82;76.32;97962.51;1761169;79;21114;-93
2022/01/05 04:05:30;;;;;;;18.02;8.40;;;;;;;6.72;76.42;97960.17;1744932;78;21106;-92
2022/01/05 04:07:58;;;;;;;18.73;8.40;;;;;;;6.66;76.48;97956.47;1762666;78;21101;-93
2022/01/05 04:10:26;;;;;;;14.53;7.72;;;;;;;6.61;76.01;97961.38;1766278;80;21006;-92
2022/01/05 04:12:53;;;;;;;15.18;8.18;;;;;;;6.53;77.00;97962.42;1788323;79;21059;-91
2022/01/05 04:15:20;;;;;;;21.05;8.33;;;;;;;6.49;76.94;97959.52;1827574;77;21060;-93
2022/01/05 04:17:46;;;;;;;18.07;6.60;;;;;;;6.46;77.04;97951.01;1814022;77;21314;-90
2022/01/05 04:20:14;;;;;;;20.57;7.83;;;;;;;6.37;78.47;97970.18;1799666;78;21074;-93
2022/01/05 04:22:41;;;;;;;17.42;7.78;;;;;;;6.29;79.09;97953.59;1763273;79;21067;-92
2022/01/05 04:25:09;;;;;;;18.92;7.33;;;;;;;6.27;77.62;97959.70;1765593;78;21090;-90
2022/01/05 04:27:36;;;;;;;17.65;7.65;;;;;;;6.29;77.92;97963.09;1766190;78;21118;-91
2022/01/05 04:30:10;;;;;;;21.40;8.75;;;;;;;6.34;77.97;97950.44;1766866;79;21141;-92
2022/01/05 04:32:37;;;;;;;27.40;9.93;;;;;;;6.31;80.44;97972.92;1704654;78;22201;-91
2022/01/05 04:35:05;;;;;;;21.77;8.10;;;;;;;6.30;79.66;97955.28;1716485;80;21584;-92
2022/01/05 04:37:32;;;;;;;20.48;8.83;;;;;;;6.35;79.56;97963.76;1736545;82;21019;-91
2022/01/05 04:40:00;;;;;;;19.23;8.10;;;;;;;6.40;79.28;97962.34;1742361;82;21044;-92
2022/01/05 04:42:26;;;;;;;22.37;8.35;;;;;;;6.45;78.84;97958.36;1742162;77;21086;-90
2022/01/05 04:44:55;;;;;;;22.25;7.95;;;;;;;6.47;79.05;97953.55;1754459;77;21158;-91
2022/01/05 04:47:21;;;;;;;33.25;10.60;;;;;;;6.49;79.06;97960.81;1746913;77;21033;-89
2022/01/05 04:49:49;;;;;;;25.37;10.10;;;;;;;6.50;79.23;97964.23;1739339;78;21409;-90
2022/01/05 04:52:15;;;;;;;25.50;8.48;;;;;;;6.53;79.13;97966.75;1736631;83;21064;-92
2022/01/05 04:54:42;;;;;;;22.10;10.63;;;;;;;6.55;79.14;97964.52;1736456;83;21080;-92
2022/01/05 04:57:09;;;;;;;32.78;11.73;;;;;;;6.58;79.30;97961.00;1736300;83;21053;-90
2022/01/05 04:59:36;;;;;;;20.90;10.03;;;;;;;6.53;79.33;97966.30;1736122;83;21072;-92
2022/01/05 05:02:03;;;;;;;28.55;10.65;;;;;;;6.49;78.98;97965.98;1749448;78;21045;-91
2022/01/05 05:04:31;;;;;;;21.95;8.78;;;;;;;6.48;78.89;97968.59;1719737;78;21109;-92
2022/01/05 05:06:58;;;;;;;23.95;9.73;;;;;;;6.40;79.10;97973.12;1719686;83;21507;-90
2022/01/05 05:09:24;;;;;;;28.38;11.00;;;;;;;6.31;79.77;97963.89;1733586;82;21560;-92
2022/01/05 05:11:51;;;;;;;28.92;9.98;;;;;;;6.23;79.90;97981.28;1715470;83;21555;-92
2022/01/05 05:14:21;;;;;;;29.63;10.58;;;;;;;6.15;79.71;97975.89;1739166;80;21164;-91
2022/01/05 05:16:47;;;;;;;39.50;16.42;;;;;;;6.10;80.24;97975.59;1753887;77;21110;-93
2022/01/05 05:19:15;;;;;;;34.20;13.55;;;;;;;6.05;79.96;97975.72;1760408;78;21788;-91
2022/01/05 05:21:41;;;;;;;39.45;13.53;;;;;;;6.00;79.91;97979.30;1762807;80;20995;-93
2022/01/05 05:24:10;;;;;;;28.32;13.35;;;;;;;5.93;80.63;97978.57;1756811;80;21015;-93
2022/01/05 05:26:36;;;;;;;26.33;11.73;;;;;;;5.89;81.09;97974.34;1762187;78;21098;-91
2022/01/05 05:29:03;;;;;;;33.53;10.75;;;;;;;5.81;80.22;97967.23;1762633;81;20958;-92
2022/01/05 05:31:29;;;;;;;26.55;11.20;;;;;;;5.76;80.42;97973.34;1754247;81;20948;-92
2022/01/05 05:33:55;;;;;;;25.82;11.50;;;;;;;5.71;81.60;97973.05;1800768;79;21013;-92
2022/01/05 05:36:21;;;;;;;36.65;14.50;;;;;;;5.66;81.37;97983.93;1802389;78;21048;-93
2022/01/05 05:38:48;;;;;;;24.35;12.03;;;;;;;5.61;80.07;97983.17;1794603;78;21003;-91
2022/01/05 05:41:14;;;;;;;32.78;14.07;;;;;;;5.54;80.77;97990.21;1799035;79;21009;-91
2022/01/05 05:43:42;;;;;;;32.93;13.22;;;;;;;5.49;82.15;97986.88;1704292;79;21076;-90
2022/01/05 05:46:09;;;;;;;38.67;13.58;;;;;;;5.46;81.42;97979.23;1740771;82;21065;-92
2022/01/05 05:48:35;;;;;;;34.08;15.15;;;;;;;5.45;81.00;97978.39;1741107;81;21029;-92
2022/01/05 05:51:03;;;;;;;47.20;12.47;;;;;;;5.44;81.57;97983.57;1716013;81;21072;-91
2022/01/05 05:53:30;;;;;;;39.80;12.45;;;;;;;5.43;81.63;97980.16;1729587;83;21004;-90
2022/01/05 05:55:56;;;;;;;28.25;11.35;;;;;;;5.45;81.73;97984.83;1706265;83;21125;-91
2022/01/05 05:58:22;;;;;;;35.70;13.53;;;;;;;5.48;81.38;97981.33;1707453;84;21505;-90
2022/01/05 06:00:51;;;;;;;28.50;10.98;;;;;;;5.46;81.66;97984.38;1674637;83;21111;-91
2022/01/05 06:03:17;;;;;;;35.10;11.85;;;;;;;5.46;82.15;97986.52;1672495;84;21072;-89
2022/01/05 06:05:46;;;;;;;32.73;12.68;;;;;;;5.49;81.94;97984.30;1719629;82;21147;-93
2022/01/05 06:08:12;;;;;;;27.93;11.55;;;;;;;5.50;82.04;97974.41;1709530;82;20993;-92
2022/01/05 06:10:38;;;;;;;29.42;11.75;;;;;;;5.54;82.16;97976.03;1746538;82;20996;-93
2022/01/05 06:13:08;;;;;;;44.73;12.37;;;;;;;5.57;81.96;97975.95;1715592;81;21108;-93
2022/01/05 06:15:34;;;;;;;53.35;15.38;;;;;;;5.61;82.55;97983.17;1714952;83;21502;-93
2022/01/05 06:18:02;;;;;;;41.85;16.30;;;;;;;5.63;81.97;97986.14;1800610;78;21056;-91
2022/01/05 06:20:29;;;;;;;37.90;17.15;;;;;;;5.64;82.03;97985.25;1804673;79;21004;-91
2022/01/05 06:22:55;;;;;;;48.55;18.57;;;;;;;5.70;82.13;97983.81;1797894;78;21479;-92
2022/01/05 06:25:22;;;;;;;46.73;17.85;;;;;;;5.73;81.88;97991.49;1790799;78;21039;-89
2022/01/05 06:27:48;;;;;;;47.98;18.87;;;;;;;5.73;81.71;97997.94;1807962;78;21000;-91
2022/01/05 06:30:15;;;;;;;44.45;19.45;;;;;;;5.69;81.64;97995.03;1808494;79;21095;-92
2022/01/05 06:32:46;;;;;;;51.45;22.65;;;;;;;5.70;81.41;97986.39;1803957;79;21149;-91
2022/01/05 06:35:14;;;;;;;84.97;36.30;;;;;;;5.71;82.37;97981.66;1749105;78;21065;-91
2022/01/05 06:37:41;;;;;;;60.28;26.70;;;;;;;5.72;82.31;97980.75;1786358;78;21074;-90
2022/01/05 06:40:09;;;;;;;64.35;27.30;;;;;;;5.73;82.57;97983.75;1815407;78;21016;-91
2022/01/05 06:42:35;;;;;;;64.77;28.30;;;;;;;5.74;82.56;97981.56;1733285;78;21108;-92
2022/01/05 06:45:02;;;;;;;72.03;23.62;;;;;;;5.77;82.50;97989.70;1725829;83;21026;-92
2022/01/05 06:47:30;;;;;;;58.83;21.82;;;;;;;5.80;82.46;97993.92;1749510;76;21030;-88
2022/01/05 06:49:56;;;;;;;51.85;21.10;;;;;;;5.82;82.14;97991.70;1764731;80;20990;-92
2022/01/05 06:52:23;;;;;;;33.50;14.58;;;;;;;5.86;82.48;97991.20;1765422;81;21170;-94
2022/01/05 06:54:49;;;;;;;30.27;13.38;;;;;;;5.91;82.09;97995.82;1767344;80;21022;-94
2022/01/05 06:57:16;;;;;;;30.60;13.38;;;;;;;6.00;82.30;97989.16;1764725;80;21483;-94
2022/01/05 06:59:43;;;;;;;32.65;15.60;;;;;;;6.09;82.05;97988.11;1731364;80;21693;-93
2022/01/05 07:02:09;;;;;;;34.80;16.25;;;;;;;6.18;82.13;97989.98;1770253;81;21023;-91
2022/01/05 07:04:36;;;;;;;36.03;14.85;;;;;;;6.27;82.28;97986.34;1766955;81;21045;-92
2022/01/05 07:07:03;;;;;;;31.93;14.43;;;;;;;6.36;82.36;97983.96;1768230;81;21026;-92
2022/01/05 07:09:30;;;;;;;36.45;16.32;;;;;;;6.44;82.18;97988.48;1735252;81;21016;-93
2022/01/05 07:11:56;;;;;;;34.53;16.80;;;;;;;6.51;81.95;97983.56;1770480;80;21462;-93
2022/01/05 07:14:23;;;;;;;46.28;17.77;;;;;;;6.60;81.88;97985.50;1735929;81;21019;-92
2022/01/05 07:16:51;;;;;;;39.70;16.77;;;;;;;6.69;81.90;97991.27;1747463;81;20971;-91
2022/01/05 07:19:20;;;;;;;46.88;20.37;;;;;;;6.81;81.93;97975.04;1798318;77;21748;-91
2022/01/05 07:21:50;;;;;;;29.77;15.25;;;;;;;6.90;81.87;97982.09;1817232;77;21044;-93
2022/01/05 07:24:19;;;;;;;38.28;15.95;;;;;;;7.01;81.99;97977.06;1768356;77;21105;-91
2022/01/05 07:26:45;;;;;;;31.15;14.65;;;;;;;7.12;81.96;97978.87;1782539;78;21034;-93
2022/01/05 07:29:14;;;;;;;28.20;11.00;;;;;;;7.23;81.87;97978.12;1795280;78;21135;-92
2022/01/05 07:31:42;;;;;;;24.57;11.93;;;;;;;7.35;81.63;97992.42;1810573;78;21118;-92
2022/01/05 07:34:10;;;;;;;27.13;12.43;;;;;;;7.48;81.63;97973.50;1761678;78;21229;-89
2022/01/05 07:36:37;;;;;;;32.85;13.15;;;;;;;7.59;81.80;97977.06;1763506;80;21115;-85
2022/01/05 07:39:05;;;;;;;33.13;13.05;;;;;;;7.69;81.52;97971.55;1737101;79;21120;-89
2022/01/05 07:41:38;;;;;;;29.42;13.43;;;;;;;7.77;81.27;97974.73;1720482;82;21148;-91
2022/01/05 07:44:06;;;;;;;25.30;12.18;;;;;;;7.85;81.03;97977.08;1752075;81;21509;-92
2022/01/05 07:46:34;;;;;;;21.73;11.00;;;;;;;7.93;80.75;97972.95;1708768;80;21583;-94
2022/01/05 07:49:09;;;;;;;19.00;8.53;;;;;;;7.99;80.64;97975.34;1717558;79;21032;-91
2022/01/05 07:51:39;;;;;;;22.13;9.25;;;;;;;8.06;80.15;97968.24;1736810;79;21549;-91
2022/01/05 07:54:07;;;;;;;22.48;9.53;;;;;;;8.14;79.89;97974.84;1748512;78;21068;-93
2022/01/05 07:56:34;;;;;;;24.65;10.45;;;;;;;8.21;79.81;97962.98;1733801;82;21613;-93
2022/01/05 07:59:01;;;;;;;26.02;11.85;;;;;;;8.30;79.70;97960.94;1754500;80;21008;-93
2022/01/05 08:01:27;;;;;;;20.43;9.95;;;;;;;8.41;79.65;97959.30;1767265;80;21051;-92
2022/01/05 08:03:54;;;;;;;25.62;10.10;;;;;;;8.51;79.32;97950.30;1716106;83;21000;-92
2022/01/05 08:06:20;;;;;;;27.93;13.95;;;;;;;8.59;79.12;97951.79;1744356;82;21093;-94
2022/01/05 08:08:48;;;;;;;31.50;15.63;;;;;;;8.69;78.98;97957.87;1739369;82;21031;-92
2022/01/05 08:11:15;;;;;;;33.70;16.55;;;;;;;8.79;78.84;97953.67;1730353;78;21042;-94
2022/01/05 08:13:42;;;;;;;41.63;21.27;;;;;;;8.88;78.93;97956.77;1674731;81;21064;-94
2022/01/05 08:16:09;;;;;;;24.63;13.03;;;;;;;8.99;78.67;97951.64;1684453;85;21080;-95
2022/01/05 08:18:36;;;;;;;26.17;12.50;;;;;;;9.09;78.16;97951.69;1660024;85;21089;-89
2022/01/05 08:21:03;;;;;;;24.72;12.07;;;;;;;9.18;78.37;97959.13;1678935;85;21072;-89
2022/01/05 08:23:30;;;;;;;25.12;10.45;;;;;;;9.23;77.78;97967.60;1696149;79;21097;-93
2022/01/05 08:25:56;;;;;;;25.48;10.88;;;;;;;9.27;77.12;97967.88;1736003;81;21012;-91
2022/01/05 08:28:23;;;;;;;26.70;10.75;;;;;;;9.31;77.52;97973.34;1704496;83;21022;-89
2022/01/05 08:30:53;;;;;;;22.98;10.80;;;;;;;9.34;76.55;97979.69;1701791;81;21076;-92
2022/01/05 08:33:19;;;;;;;20.92;10.65;;;;;;;9.39;77.02;97971.76;1723339;82;21071;-90
2022/01/05 08:35:47;;;;;;;30.70;11.08;;;;;;;9.47;77.38;97975.33;1708126;84;21092;-91
2022/01/05 08:38:15;;;;;;;26.37;11.15;;;;;;;9.52;76.77;97978.14;1695345;82;21005;-88
2022/01/05 08:40:41;;;;;;;41.85;16.57;;;;;;;9.61;77.67;97971.77;1711740;81;21073;-90
2022/01/05 08:43:10;;;;;;;31.85;14.33;;;;;;;9.69;77.15;97978.80;1683836;83;21059;-92
2022/01/05 08:45:39;;;;;;;25.25;11.53;;;;;;;9.78;76.57;97974.14;1697613;82;21081;-94
2022/01/05 08:48:06;;;;;;;40.10;18.62;;;;;;;9.84;75.71;97984.28;1686671;83;21038;-87
2022/01/05 08:50:37;;;;;;;24.27;12.98;;;;;;;9.90;75.79;97972.34;1738627;80;21094;-93
2022/01/05 08:53:07;;;;;;;40.05;17.05;;;;;;;9.99;75.12;97973.72;1754567;80;21078;-94
2022/01/05 08:55:39;;;;;;;30.95;12.65;;;;;;;10.07;74.63;97971.22;1751068;79;21096;-93
2022/01/05 08:58:07;;;;;;;30.37;14.63;;;;;;;10.18;74.57;97964.73;1758156;80;21145;-88
2022/01/05 09:00:36;;;;;;;38.50;14.28;;;;;;;10.25;74.63;97960.98;1782780;79;21092;-88
2022/01/05 09:03:05;;;;;;;27.02;13.13;;;;;;;10.32;74.62;97962.42;1782461;78;21076;-88
2022/01/05 09:05:33;;;;;;;24.45;11.97;;;;;;;10.38;75.30;97959.57;1768234;78;21051;-92
2022/01/05 09:08:01;;;;;;;24.92;11.18;;;;;;;10.45;74.55;97958.41;1743287;80;21038;-89
2022/01/05 09:10:28;;;;;;;20.88;13.28;;;;;;;10.51;74.42;97963.34;1753557;80;21159;-92
2022/01/05 09:12:56;;;;;;;28.95;14.58;;;;;;;10.58;74.15;97959.17;1780138;80;21028;-88
2022/01/05 09:15:23;;;;;;;36.20;15.90;;;;;;;10.65;74.26;97956.72;1737355;79;21094;-92
2022/01/05 09:17:50;;;;;;;25.30;13.70;;;;;;;10.73;74.67;97950.72;1724379;81;21155;-94
2022/01/05 09:20:16;;;;;;;120.92;60.45;;;;;;;10.80;73.99;97946.92;1730960;81;21067;-93
2022/01/05 09:22:43;;;;;;;34.60;14.30;;;;;;;10.91;74.34;97943.86;1749337;81;21024;-92
2022/01/05 09:25:12;;;;;;;27.02;11.25;;;;;;;10.97;74.35;97943.58;1749348;81;20991;-89
2022/01/05 09:27:40;;;;;;;20.52;9.13;;;;;;;11.03;72.43;97942.00;1744404;82;20992;-85
2022/01/05 09:30:10;;;;;;;17.15;8.90;;;;;;;11.08;71.93;97940.05;1744995;82;21032;-88
2022/01/05 09:32:38;;;;;;;24.35;9.48;;;;;;;11.15;73.09;97935.39;1760433;79;21041;-92
2022/01/05 09:35:08;;;;;;;26.95;11.57;;;;;;;11.18;72.84;97932.67;1721514;79;21030;-91
2022/01/05 09:37:49;;;;;;;19.92;10.28;;;;;;;11.24;72.85;97925.02;1723523;78;21077;-92
2022/01/05 09:42:54;;;;;;;32.38;13.28;;;;;;;11.28;72.50;97918.75;1712096;83;21059;-90
2022/01/05 09:45:23;;;;;;;30.45;12.23;;;;;;;11.28;70.79;97917.02;1731332;78;21088;-88
2022/01/05 09:48:22;;;;;;;27.95;10.85;;;;;;;11.32;70.79;97917.69;1678450;83;21000;-88
2022/01/05 09:50:57;;;;;;;30.17;13.25;;;;;;;11.38;72.28;97916.56;1755305;80;21069;-87
2022/01/05 09:53:25;;;;;;;28.27;12.68;;;;;;;11.44;71.92;97917.14;1758177;81;21087;-88
2022/01/05 09:55:53;;;;;;;25.68;12.85;;;;;;;11.53;70.98;97917.98;1755949;81;21093;-88
2022/01/05 09:58:23;;;;;;;27.80;13.58;;;;;;;11.68;70.63;97909.08;1764134;80;20984;-89
2022/01/05 10:00:51;;;;;;;27.20;11.75;;;;;;;11.82;70.97;97896.22;1760810;80;21141;-88
2022/01/05 10:03:19;;;;;;;25.08;11.35;;;;;;;11.91;69.28;97897.08;1750848;82;21034;-88
2022/01/05 10:05:46;;;;;;;25.97;10.23;;;;;;;11.98;70.33;97892.42;1760251;81;21040;-90
2022/01/05 10:08:13;;;;;;;22.95;9.68;;;;;;;12.07;70.11;97893.25;1760585;81;21068;-90
2022/01/05 10:10:42;;;;;;;24.05;9.90;;;;;;;12.12;68.79;97882.14;1760264;81;21032;-86
2022/01/05 10:13:09;;;;;;;25.62;10.25;;;;;;;12.19;68.90;97883.13;1759291;80;21105;-89
2022/01/05 10:15:37;;;;;;;24.92;11.38;;;;;;;12.26;69.19;97884.52;1757874;80;20984;-91
2022/01/05 10:18:15;;;;;;;23.32;10.58;;;;;;;12.31;68.97;97878.59;1760987;80;21016;-87
2022/01/05 10:21:03;;;;;;;23.22;10.38;;;;;;;12.39;69.65;97867.77;1737871;82;21020;-90
2022/01/05 10:23:41;;;;;;;26.57;10.30;;;;;;;12.44;68.37;97871.83;1764007;80;21038;-87
2022/01/05 10:26:20;;;;;;;20.10;9.30;;;;;;;12.47;68.51;97861.26;1738891;80;21048;-93
2022/01/05 10:28:48;;;;;;;18.42;9.08;;;;;;;12.52;68.62;97859.70;1738530;82;21545;-94
2022/01/05 10:31:19;;;;;;;22.77;9.65;;;;;;;12.56;68.56;97865.61;1676441;81;21093;-94
2022/01/05 10:33:48;;;;;;;18.82;8.65;;;;;;;12.58;68.55;97859.37;1740071;77;21137;-94
2022/01/05 10:36:17;;;;;;;18.37;9.23;;;;;;;12.61;67.90;97862.27;1737836;79;21068;-95
2022/01/05 10:41:43;;;;;;;24.90;10.70;;;;;;;12.64;67.53;97861.66;1753216;81;21127;-93
2022/01/05 10:44:18;;;;;;;23.32;9.80;;;;;;;12.69;67.72;97858.80;1778870;79;21033;-92
2022/01/05 10:46:55;;;;;;;22.67;10.38;;;;;;;12.71;66.98;97851.73;1744961;78;21112;-93
2022/01/05 10:49:32;;;;;;;23.40;9.63;;;;;;;12.79;66.92;97844.33;1773894;78;21134;-95
2022/01/05 10:52:27;;;;;;;;;;;;;;;12.88;67.19;97850.36;1727422;82;21070;-92
2022/01/05 10:55:13;;;;;;;23.07;10.53;;;;;;;12.96;66.87;97839.98;1740033;81;20091;-87
2022/01/05 10:58:02;;;;;;;19.32;9.93;;;;;;;12.99;67.58;97841.11;1724162;80;21027;-89
2022/01/05 11:00:41;;;;;;;16.12;8.40;;;;;;;13.02;67.03;97833.12;1790424;78;21089;-94
2022/01/05 11:03:35;;;;;;;21.65;10.10;;;;;;;13.07;66.40;97824.13;1722460;77;21133;-94
2022/01/05 11:06:09;;;;;;;24.15;9.73;;;;;;;13.12;66.31;97829.08;1697794;82;21124;-94
2022/01/05 11:11:41;;;;;;;22.40;9.15;;;;;;;13.19;66.91;97818.69;1676332;84;21020;-91
2022/01/05 11:14:34;;;;;;;17.23;9.45;;;;;;;13.21;65.83;97817.27;1662803;86;20996;-88
2022/01/05 11:17:06;;;;;;;22.70;9.05;;;;;;;13.26;65.66;97812.65;1707084;82;22523;-94
2022/01/05 11:19:39;;;;;;;29.15;10.60;;;;;;;13.19;66.94;97793.90;1760132;79;21087;-89
2022/01/05 11:22:16;;;;;;;18.55;9.03;;;;;;;13.29;66.39;97812.46;1704803;84;20987;-88
2022/01/05 11:24:54;;;;;;;20.27;9.25;;;;;;;13.33;66.32;97815.34;1705543;81;21076;-89
2022/01/05 11:27:26;;;;;;;26.50;10.93;;;;;;;13.38;64.98;97809.84;1752575;82;21248;-88
2022/01/05 11:29:56;;;;;;;21.15;9.60;;;;;;;13.44;66.29;97818.16;1746519;80;21065;-91
2022/01/05 11:32:30;;;;;;;22.48;10.90;;;;;;;13.42;64.99;97810.04;1722332;80;21082;-93
2022/01/05 11:34:55;;;;;;;24.45;11.20;;;;;;;13.38;64.39;97807.23;1760370;79;21164;-92
2022/01/05 11:37:22;;;;;;;21.48;11.50;;;;;;;13.40;65.23;97811.42;1773903;80;21008;-86
2022/01/05 11:39:52;;;;;;;28.57;11.30;;;;;;;13.42;65.60;97806.96;1770478;81;21024;-91
2022/01/05 11:42:29;;;;;;;23.77;10.35;;;;;;;13.46;65.05;97809.77;1771489;80;21027;-88
2022/01/05 11:44:58;;;;;;;21.95;11.20;;;;;;;13.53;65.20;97802.45;1742172;80;21152;-91